• Join FlightAware (Why Join?)
  • Login
  • US Flag 
09:03PM EDT


 

Airport Tracker/Info


-or-


 

Live Flight TrackerFlight Track Log ✈ DAL6036 ✈ 03-May-2013 ✈ KDTW - KGRR

Flight Track Log - Related Links

Times and Time Zones

All times are in EDT time to prevent confusion due to time zone crossing. See the DAL6036 flight status page for this flight to view local times or setup timezone preferences in your user account.

Time Position Orientation Groundspeed Altitude Reporting Facility
EDT Latitude Longitude Course Direction KTS MPH feet Rate Location/Type
08:17PM 42.2375 -83.3344 294° West 165 190 1,400  Level Cleveland Center
08:18PM 42.3214 -83.3214 North 245 282 4,000 1,920 Climbing Cleveland Center
08:19PM 42.2953 -83.7098 285° West  Level FlightAware Approximate
08:19PM 42.3944 -83.3133 North 284 327 6,200  Level Cleveland Center
08:20PM 42.3314 -83.8275 294° West  Level FlightAware Approximate
08:20PM 42.4211 -83.4128 290° West 293 337 8,800  Level Cleveland Center
08:21PM 42.3568 -83.9503 285° West  Level FlightAware Approximate
08:21PM 42.4228 -83.5169 271° West 277 319 10,000  Level Cleveland Center
08:22PM 42.3899 -84.0695 294° West  Level FlightAware Approximate
08:22PM 42.4258 -83.6408 272° West 309 356 11,000  Level Cleveland Center
08:23PM 42.4242 -83.7731 269° West 335 386 12,000 480 Climbing Cleveland Center
08:24PM 42.4247 -83.9081 270° West 356 410 12,000  Level Cleveland Center
08:25PM 42.4267 -84.0489 271° West 367 422 12,000 -60 Level Cleveland Center
08:26PM 42.4267 -84.1869 270° West 367 422 11,900  Descending Cleveland Center
08:27PM 42.4664 -84.3131 293° West 362 417 12,000 -300 Climbing Cleveland Center
08:28PM 42.5100 -84.4422 295° West 362 417 11,400 -720 Descending Cleveland Center
08:29PM 42.5558 -84.5664 297° West 372 428 10,600 -900 Descending Cleveland Center
08:30PM 42.5769 -84.6250 296° West 372 428 10,100 -420 Descending Chicago Center
08:31PM 42.6203 -84.7492 295° West 366 421 10,000 -60 Descending Chicago Center
08:32PM 42.6611 -84.8711 295° West 360 414 10,000 -540 Level Chicago Center
08:33PM 42.6953 -84.9764 294° West 313 360 9,000 -1,080 Descending Chicago Center
08:34PM 42.7133 -85.0781 284° West 284 327 7,800 -1,500 Descending Chicago Center
08:35PM 42.7336 -85.1942 283° West 267 307 6,000 -1,440 Descending Chicago Center
08:36PM 42.7508 -85.2906 284° West 263 303 4,900 -540 Descending Chicago Center
08:37PM 42.7667 -85.3806 284° West 253 291 4,900  Level Chicago Center
08:38PM 42.7814 -85.4683 283° West 242 278 4,900 -600 Level Chicago Center
08:39PM 42.7953 -85.5572 282° West 241 277 3,700 -1,200 Descending Chicago Center
08:40PM 42.8069 -85.6475 280° West 242 278 2,500 -720 Descending Chicago Center
08:41PM 42.8558 -85.6497 358° North 224 258 2,300 -240 Descending Chicago Center